Airfield :
LOGIN :

Register | Disclaimer

   EN    FR    IT 

 










Legend :    VFR   Marginal VFR   IFR   Intensive IFR   Very Intensive IFR
Visi :
Ceiling :
>= 8 km
>= 3000ft
5 to 8 km
1000 to 3000 ft
1500m to 5 km
500 to 1000 ft
800 to 1500m
200 to 500 ft
< 800m
< 200 ft
Symbols :   Thunderstorms  Fog  Heavy snow  Heavy precipitations  Wind > 20 kt
SIGMETs :     Misc.  Thunderstorms  Icing  Turbulence  Mountain Waves  Volcanic Ashes






- Airport Elevation : 49 ft
- IATA code : GLZ


EHGR - Gilze-Rijen Airbase

CURRENT METAR :
  • 290525Z AUTO 27003KT 200V290 9999 -DZ BKN038 OVC042 09/08 Q1017 REDZ BLU

EXPIRED METARs :
  • 290455Z AUTO VRB01KT 9999 OVC017 08/07 Q1017 REDZ WHT
  • 290446Z AUTO VRB01KT 9999 -RADZ SCT018 SCT036 BKN041 08/07 Q1017 WHT
  • 290436Z AUTO VRB01KT 9999 -RA FEW020 SCT025 OVC036 07/07 Q1017 BLU
  • 290429Z AUTO 11003KT 100V260 9999 -RA FEW001 BKN021 BKN026 07/07 Q1017 WHT
  • 290425Z AUTO VRB02KT 9999 -SHRA FEW001 SCT026 BKN039 07/06 Q1017 RERA BLU
  • 290355Z AUTO 27003KT 230V310 9999 FEW015CB BKN060 OVC065 07/06 Q1017 BLU
  • 290325Z AUTO 26002KT 9999 OVC068 05/05 Q1017 BLU
  • 290255Z AUTO 25001KT 9999 BKN073 04/04 Q1017 BLU

Expired Forecast.



MET'MAP, your aeronautical weather chart ! - Copyright ORBIFLY December 2007 - Disclaimer

ORBIFLY MET'MAP TEAM :

Programming & Development : Alexandra Zaïnal
Original concept : Baudouin d'Aumeries
Technical & hardware support : Manuel Goepfert
Assistance : Marc-Olivier Méhu

Contact : metmap@orbifly.com




SOURCES & CREDITS :

   NOAA